sensor_id;sensor_type;location;lat;lon;timestamp;pressure;altitude;pressure_sealevel;temperature;humidity
69173;BME280;56280;49.662;8.408;2023-03-04T00:01:40;101515.50;;;-0.32;83.67
69173;BME280;56280;49.662;8.408;2023-03-04T00:04:05;101508.75;;;-0.43;83.33
69173;BME280;56280;49.662;8.408;2023-03-04T00:06:31;101508.69;;;-0.40;83.31
69173;BME280;56280;49.662;8.408;2023-03-04T00:08:56;101536.63;;;-0.43;83.38
69173;BME280;56280;49.662;8.408;2023-03-04T00:11:21;101525.03;;;-0.30;83.38
69173;BME280;56280;49.662;8.408;2023-03-04T00:13:47;101536.06;;;-0.14;82.60
69173;BME280;56280;49.662;8.408;2023-03-04T00:16:12;101514.47;;;-0.22;82.75
69173;BME280;56280;49.662;8.408;2023-03-04T00:18:37;101522.59;;;-0.39;83.47
69173;BME280;56280;49.662;8.408;2023-03-04T00:21:03;101526.06;;;-0.37;83.74
69173;BME280;56280;49.662;8.408;2023-03-04T00:23:28;101531.06;;;-0.26;83.98
69173;BME280;56280;49.662;8.408;2023-03-04T00:25:53;101518.13;;;-0.32;83.78
69173;BME280;56280;49.662;8.408;2023-03-04T00:28:19;101525.78;;;-0.23;83.08
69173;BME280;56280;49.662;8.408;2023-03-04T00:30:44;101517.16;;;-0.27;83.29
69173;BME280;56280;49.662;8.408;2023-03-04T00:33:09;101528.94;;;-0.52;84.24
69173;BME280;56280;49.662;8.408;2023-03-04T00:35:34;101526.50;;;-0.62;85.53
69173;BME280;56280;49.662;8.408;2023-03-04T00:38:00;101508.41;;;-0.73;85.75
69173;BME280;56280;49.662;8.408;2023-03-04T00:40:25;101531.41;;;-0.43;85.48
69173;BME280;56280;49.662;8.408;2023-03-04T00:42:53;101520.22;;;-0.50;84.22
69173;BME280;56280;49.662;8.408;2023-03-04T00:45:18;101540.22;;;-0.50;84.42
69173;BME280;56280;49.662;8.408;2023-03-04T00:47:44;101541.03;;;-0.48;83.79
69173;BME280;56280;49.662;8.408;2023-03-04T00:50:09;101518.47;;;-1.01;84.56
69173;BME280;56280;49.662;8.408;2023-03-04T00:52:35;101524.28;;;-1.39;87.23
69173;BME280;56280;49.662;8.408;2023-03-04T00:55:00;101545.19;;;-1.42;88.87
69173;BME280;56280;49.662;8.408;2023-03-04T00:57:25;101538.13;;;-1.36;89.75
69173;BME280;56280;49.662;8.408;2023-03-04T00:59:51;101519.91;;;-1.37;89.48
69173;BME280;56280;49.662;8.408;2023-03-04T01:02:16;101525.91;;;-1.32;89.71
69173;BME280;56280;49.662;8.408;2023-03-04T01:04:41;101538.16;;;-1.37;90.11
69173;BME280;56280;49.662;8.408;2023-03-04T01:07:07;101533.38;;;-1.09;89.93
69173;BME280;56280;49.662;8.408;2023-03-04T01:09:32;101511.16;;;-1.33;89.45
69173;BME280;56280;49.662;8.408;2023-03-04T01:11:58;101519.97;;;-1.42;90.45
69173;BME280;56280;49.662;8.408;2023-03-04T01:14:23;101517.03;;;-1.19;90.59
69173;BME280;56280;49.662;8.408;2023-03-04T01:16:49;101529.13;;;-1.15;90.14
69173;BME280;56280;49.662;8.408;2023-03-04T01:19:15;101528.19;;;-1.11;90.41
69173;BME280;56280;49.662;8.408;2023-03-04T01:21:40;101519.31;;;-1.00;89.33
69173;BME280;56280;49.662;8.408;2023-03-04T01:24:06;101528.94;;;-1.02;89.40
69173;BME280;56280;49.662;8.408;2023-03-04T01:26:31;101519.81;;;-0.77;88.11
69173;BME280;56280;49.662;8.408;2023-03-04T01:28:56;101503.56;;;-0.44;86.47
69173;BME280;56280;49.662;8.408;2023-03-04T01:31:22;101474.00;;;-0.45;85.27
69173;BME280;56280;49.662;8.408;2023-03-04T01:33:47;101523.44;;;0.08;84.01
69173;BME280;56280;49.662;8.408;2023-03-04T01:36:13;101503.63;;;-0.04;82.92
69173;BME280;56280;49.662;8.408;2023-03-04T01:38:38;101492.53;;;-0.15;82.56
69173;BME280;56280;49.662;8.408;2023-03-04T01:41:03;101509.53;;;0.05;81.91
69173;BME280;56280;49.662;8.408;2023-03-04T01:43:29;101498.97;;;0.11;81.81
69173;BME280;56280;49.662;8.408;2023-03-04T01:45:56;101503.56;;;-0.01;81.90
69173;BME280;56280;49.662;8.408;2023-03-04T01:48:29;101506.13;;;0.03;81.93
69173;BME280;56280;49.662;8.408;2023-03-04T01:50:56;101494.09;;;-0.05;81.62
69173;BME280;56280;49.662;8.408;2023-03-04T01:53:26;101506.44;;;-0.13;82.14
69173;BME280;56280;49.662;8.408;2023-03-04T01:55:55;101496.66;;;-0.03;82.50
69173;BME280;56280;49.662;8.408;2023-03-04T01:58:24;101454.75;;;-0.41;82.23
69173;BME280;56280;49.662;8.408;2023-03-04T02:00:52;101436.91;;;-0.62;82.20
69173;BME280;56280;49.662;8.408;2023-03-04T02:03:18;101498.78;;;-0.22;82.66
69173;BME280;56280;49.662;8.408;2023-03-04T02:05:48;101445.31;;;-0.46;82.47
69173;BME280;56280;49.662;8.408;2023-03-04T02:08:15;101480.03;;;-0.43;83.21
69173;BME280;56280;49.662;8.408;2023-03-04T02:10:43;101472.38;;;-0.52;84.11
69173;BME280;56280;49.662;8.408;2023-03-04T02:13:09;101448.22;;;-0.63;84.48
69173;BME280;56280;49.662;8.408;2023-03-04T02:15:35;101409.00;;;-0.59;83.89
69173;BME280;56280;49.662;8.408;2023-03-04T02:18:01;101429.53;;;0.01;82.13
69173;BME280;56280;49.662;8.408;2023-03-04T02:20:33;101433.69;;;0.09;81.43
69173;BME280;56280;49.662;8.408;2023-03-04T02:28:23;101458.72;;;0.20;81.30
69173;BME280;56280;49.662;8.408;2023-03-04T02:30:51;101445.41;;;0.30;80.71
69173;BME280;56280;49.662;8.408;2023-03-04T02:33:17;101442.16;;;0.19;80.10
69173;BME280;56280;49.662;8.408;2023-03-04T02:35:44;101469.63;;;0.37;79.67
69173;BME280;56280;49.662;8.408;2023-03-04T02:38:10;101437.94;;;0.15;80.00
69173;BME280;56280;49.662;8.408;2023-03-04T02:40:36;101459.38;;;0.29;79.59
69173;BME280;56280;49.662;8.408;2023-03-04T02:43:03;101423.25;;;0.08;79.95
69173;BME280;56280;49.662;8.408;2023-03-04T02:45:40;101440.50;;;0.16;79.30
69173;BME280;56280;49.662;8.408;2023-03-04T02:48:06;101427.03;;;-0.06;79.24
69173;BME280;56280;49.662;8.408;2023-03-04T02:50:38;101427.72;;;0.03;78.91
69173;BME280;56280;49.662;8.408;2023-03-04T02:53:05;101437.13;;;0.11;79.00
69173;BME280;56280;49.662;8.408;2023-03-04T02:55:31;101462.59;;;0.02;79.26
69173;BME280;56280;49.662;8.408;2023-03-04T02:57:57;101457.75;;;-0.17;80.15
69173;BME280;56280;49.662;8.408;2023-03-04T03:00:22;101439.03;;;-0.38;80.96
69173;BME280;56280;49.662;8.408;2023-03-04T03:02:48;101418.91;;;-0.78;82.39
69173;BME280;56280;49.662;8.408;2023-03-04T03:05:13;101432.81;;;-0.76;83.40
69173;BME280;56280;49.662;8.408;2023-03-04T03:07:39;101425.22;;;-0.88;83.46
69173;BME280;56280;49.662;8.408;2023-03-04T03:10:04;101447.75;;;-0.85;84.65
69173;BME280;56280;49.662;8.408;2023-03-04T03:12:30;101405.25;;;-0.90;84.12
69173;BME280;56280;49.662;8.408;2023-03-04T03:14:56;101446.63;;;-1.19;84.64
69173;BME280;56280;49.662;8.408;2023-03-04T03:17:21;101466.50;;;-1.69;86.46
69173;BME280;56280;49.662;8.408;2023-03-04T03:19:47;101424.00;;;-2.33;87.68
69173;BME280;56280;49.662;8.408;2023-03-04T03:22:12;101444.97;;;-2.49;87.60
69173;BME280;56280;49.662;8.408;2023-03-04T03:24:37;101452.66;;;-1.73;84.73
69173;BME280;56280;49.662;8.408;2023-03-04T03:27:03;101450.78;;;-1.63;82.32
69173;BME280;56280;49.662;8.408;2023-03-04T03:29:28;101443.34;;;-1.88;85.79
69173;BME280;56280;49.662;8.408;2023-03-04T03:31:54;101404.94;;;-2.37;88.34
69173;BME280;56280;49.662;8.408;2023-03-04T03:34:21;101453.66;;;-1.81;88.21
69173;BME280;56280;49.662;8.408;2023-03-04T03:36:47;101413.91;;;-1.93;86.88
69173;BME280;56280;49.662;8.408;2023-03-04T03:39:12;101453.22;;;-1.51;86.34
69173;BME280;56280;49.662;8.408;2023-03-04T03:41:39;101418.03;;;-1.79;87.05
69173;BME280;56280;49.662;8.408;2023-03-04T03:44:05;101445.94;;;-1.88;89.91
69173;BME280;56280;49.662;8.408;2023-03-04T03:46:30;101431.53;;;-2.13;90.08
69173;BME280;56280;49.662;8.408;2023-03-04T03:48:56;101421.63;;;-1.87;90.03
69173;BME280;56280;49.662;8.408;2023-03-04T03:51:22;101457.03;;;-1.17;89.88
69173;BME280;56280;49.662;8.408;2023-03-04T03:53:47;101383.09;;;-1.16;88.13
69173;BME280;56280;49.662;8.408;2023-03-04T03:56:13;101412.91;;;-0.81;86.29
69173;BME280;56280;49.662;8.408;2023-03-04T03:58:38;101423.00;;;-0.63;84.98
69173;BME280;56280;49.662;8.408;2023-03-04T04:01:03;101453.69;;;-0.30;83.46
69173;BME280;56280;49.662;8.408;2023-03-04T04:03:29;101417.47;;;-0.47;81.93
69173;BME280;56280;49.662;8.408;2023-03-04T04:05:55;101450.34;;;-0.37;81.55
69173;BME280;56280;49.662;8.408;2023-03-04T04:08:20;101423.53;;;-0.47;80.77
69173;BME280;56280;49.662;8.408;2023-03-04T04:10:45;101428.59;;;-0.38;79.68
69173;BME280;56280;49.662;8.408;2023-03-04T04:13:11;101432.09;;;-0.39;78.45
69173;BME280;56280;49.662;8.408;2023-03-04T04:15:37;101436.44;;;-0.39;77.70
69173;BME280;56280;49.662;8.408;2023-03-04T04:18:04;101427.78;;;-0.41;77.01
69173;BME280;56280;49.662;8.408;2023-03-04T04:20:29;101438.22;;;-0.41;76.88
69173;BME280;56280;49.662;8.408;2023-03-04T04:22:54;101432.00;;;-0.35;76.35
69173;BME280;56280;49.662;8.408;2023-03-04T04:25:20;101414.03;;;-0.49;76.08
69173;BME280;56280;49.662;8.408;2023-03-04T04:27:45;101443.63;;;-0.97;79.86
69173;BME280;56280;49.662;8.408;2023-03-04T04:30:11;101438.22;;;-0.86;80.28
69173;BME280;56280;49.662;8.408;2023-03-04T04:32:36;101402.69;;;-0.94;79.01
69173;BME280;56280;49.662;8.408;2023-03-04T04:35:01;101438.38;;;-0.94;79.01
69173;BME280;56280;49.662;8.408;2023-03-04T04:37:27;101421.16;;;-1.04;80.08
69173;BME280;56280;49.662;8.408;2023-03-04T04:39:52;101406.88;;;-0.83;79.56
69173;BME280;56280;49.662;8.408;2023-03-04T04:42:20;101436.50;;;-0.42;78.41
69173;BME280;56280;49.662;8.408;2023-03-04T04:44:45;101446.75;;;-0.31;78.30
69173;BME280;56280;49.662;8.408;2023-03-04T04:47:10;101437.88;;;-0.24;78.54
69173;BME280;56280;49.662;8.408;2023-03-04T04:49:35;101442.25;;;-0.25;80.01
69173;BME280;56280;49.662;8.408;2023-03-04T04:52:01;101432.09;;;-0.39;80.36
69173;BME280;56280;49.662;8.408;2023-03-04T04:54:26;101450.50;;;-0.03;79.84
69173;BME280;56280;49.662;8.408;2023-03-04T04:56:51;101444.38;;;-0.02;78.34
69173;BME280;56280;49.662;8.408;2023-03-04T04:59:17;101438.06;;;0.09;77.60
69173;BME280;56280;49.662;8.408;2023-03-04T05:01:42;101425.88;;;0.08;78.07
69173;BME280;56280;49.662;8.408;2023-03-04T05:04:08;101438.75;;;0.17;77.75
69173;BME280;56280;49.662;8.408;2023-03-04T05:06:33;101443.00;;;0.21;78.14
69173;BME280;56280;49.662;8.408;2023-03-04T05:08:58;101440.44;;;0.20;77.92
69173;BME280;56280;49.662;8.408;2023-03-04T05:11:24;101434.91;;;0.32;77.36
69173;BME280;56280;49.662;8.408;2023-03-04T05:13:49;101424.66;;;0.24;76.89
69173;BME280;56280;49.662;8.408;2023-03-04T05:16:16;101422.25;;;0.15;78.13
69173;BME280;56280;49.662;8.408;2023-03-04T05:18:42;101422.59;;;0.37;77.98
69173;BME280;56280;49.662;8.408;2023-03-04T05:21:07;101452.63;;;0.58;76.95
69173;BME280;56280;49.662;8.408;2023-03-04T05:23:35;101437.78;;;0.59;77.20
69173;BME280;56280;49.662;8.408;2023-03-04T05:26:02;101427.16;;;0.65;77.22
69173;BME280;56280;49.662;8.408;2023-03-04T05:28:28;101442.56;;;0.76;77.01
69173;BME280;56280;49.662;8.408;2023-03-04T05:30:53;101416.69;;;0.66;77.13
69173;BME280;56280;49.662;8.408;2023-03-04T05:33:18;101430.09;;;0.87;77.33
69173;BME280;56280;49.662;8.408;2023-03-04T05:35:45;101434.31;;;0.93;76.35
69173;BME280;56280;49.662;8.408;2023-03-04T05:38:13;101435.31;;;0.87;76.82
69173;BME280;56280;49.662;8.408;2023-03-04T05:40:39;101430.44;;;0.73;77.84
69173;BME280;56280;49.662;8.408;2023-03-04T05:43:04;101412.94;;;0.75;77.37
69173;BME280;56280;49.662;8.408;2023-03-04T05:45:29;101380.50;;;0.48;77.63
69173;BME280;56280;49.662;8.408;2023-03-04T05:47:55;101430.97;;;0.87;77.43
69173;BME280;56280;49.662;8.408;2023-03-04T05:50:21;101429.81;;;0.98;77.23
69173;BME280;56280;49.662;8.408;2023-03-04T05:52:48;101409.53;;;0.73;77.72
69173;BME280;56280;49.662;8.408;2023-03-04T05:55:13;101432.59;;;0.91;77.84
69173;BME280;56280;49.662;8.408;2023-03-04T05:57:39;101440.00;;;1.08;77.14
69173;BME280;56280;49.662;8.408;2023-03-04T06:00:05;101437.16;;;1.18;76.91
69173;BME280;56280;49.662;8.408;2023-03-04T06:02:34;101412.47;;;0.95;77.46
69173;BME280;56280;49.662;8.408;2023-03-04T06:04:59;101400.06;;;1.02;77.00
69173;BME280;56280;49.662;8.408;2023-03-04T06:07:24;101410.34;;;0.75;78.46
69173;BME280;56280;49.662;8.408;2023-03-04T06:09:50;101434.69;;;0.77;79.18
69173;BME280;56280;49.662;8.408;2023-03-04T06:12:15;101435.16;;;0.93;78.78
69173;BME280;56280;49.662;8.408;2023-03-04T06:14:40;101441.47;;;1.19;78.17
69173;BME280;56280;49.662;8.408;2023-03-04T06:17:06;101446.06;;;1.11;77.90
69173;BME280;56280;49.662;8.408;2023-03-04T06:19:31;101454.44;;;1.23;77.83
69173;BME280;56280;49.662;8.408;2023-03-04T06:21:56;101424.03;;;1.19;77.78
69173;BME280;56280;49.662;8.408;2023-03-04T06:24:21;101447.13;;;1.36;77.14
69173;BME280;56280;49.662;8.408;2023-03-04T06:26:47;101451.16;;;1.48;76.53
69173;BME280;56280;49.662;8.408;2023-03-04T06:29:12;101457.22;;;1.50;76.27
69173;BME280;56280;49.662;8.408;2023-03-04T06:31:37;101465.09;;;1.50;76.49
69173;BME280;56280;49.662;8.408;2023-03-04T06:34:05;101450.47;;;1.41;75.95
69173;BME280;56280;49.662;8.408;2023-03-04T06:36:31;101465.13;;;1.49;76.42
69173;BME280;56280;49.662;8.408;2023-03-04T06:38:56;101434.00;;;1.38;76.85
69173;BME280;56280;49.662;8.408;2023-03-04T06:41:21;101459.31;;;1.37;77.47
69173;BME280;56280;49.662;8.408;2023-03-04T06:43:46;101451.94;;;1.52;77.00
69173;BME280;56280;49.662;8.408;2023-03-04T06:46:12;101452.13;;;1.45;77.41
69173;BME280;56280;49.662;8.408;2023-03-04T06:48:43;101459.72;;;1.55;77.11
69173;BME280;56280;49.662;8.408;2023-03-04T06:51:10;101467.84;;;1.75;76.97
69173;BME280;56280;49.662;8.408;2023-03-04T06:53:36;101476.38;;;1.84;76.55
69173;BME280;56280;49.662;8.408;2023-03-04T06:56:02;101478.63;;;1.96;76.68
69173;BME280;56280;49.662;8.408;2023-03-04T06:58:27;101473.13;;;1.74;77.30
69173;BME280;56280;49.662;8.408;2023-03-04T07:00:53;101448.06;;;1.65;77.23
69173;BME280;56280;49.662;8.408;2023-03-04T07:03:19;101485.59;;;1.97;76.68
69173;BME280;56280;49.662;8.408;2023-03-04T07:05:45;101463.41;;;1.79;76.43
69173;BME280;56280;49.662;8.408;2023-03-04T07:08:10;101469.16;;;1.92;76.96
69173;BME280;56280;49.662;8.408;2023-03-04T07:10:35;101479.28;;;2.03;76.63
69173;BME280;56280;49.662;8.408;2023-03-04T07:13:01;101459.94;;;1.77;76.28
69173;BME280;56280;49.662;8.408;2023-03-04T07:15:26;101485.41;;;2.03;76.57
69173;BME280;56280;49.662;8.408;2023-03-04T07:17:52;101481.56;;;2.15;76.23
69173;BME280;56280;49.662;8.408;2023-03-04T07:20:17;101488.59;;;2.14;76.16
69173;BME280;56280;49.662;8.408;2023-03-04T07:22:43;101498.53;;;2.31;76.10
69173;BME280;56280;49.662;8.408;2023-03-04T07:25:09;101483.69;;;2.32;75.09
69173;BME280;56280;49.662;8.408;2023-03-04T07:27:35;101478.59;;;2.27;75.37
69173;BME280;56280;49.662;8.408;2023-03-04T07:30:05;101482.59;;;2.39;75.21
69173;BME280;56280;49.662;8.408;2023-03-04T07:32:31;101473.03;;;2.36;75.29
69173;BME280;56280;49.662;8.408;2023-03-04T07:34:58;101498.31;;;2.39;76.15
69173;BME280;56280;49.662;8.408;2023-03-04T07:37:23;101484.41;;;2.37;76.72
69173;BME280;56280;49.662;8.408;2023-03-04T07:39:48;101484.44;;;2.35;76.33
69173;BME280;56280;49.662;8.408;2023-03-04T07:42:14;101485.81;;;2.47;76.19
69173;BME280;56280;49.662;8.408;2023-03-04T07:44:39;101482.50;;;2.42;75.57
69173;BME280;56280;49.662;8.408;2023-03-04T07:47:04;101490.13;;;2.50;75.40
69173;BME280;56280;49.662;8.408;2023-03-04T07:49:30;101484.69;;;2.56;75.09
69173;BME280;56280;49.662;8.408;2023-03-04T07:51:55;101496.44;;;2.71;75.47
69173;BME280;56280;49.662;8.408;2023-03-04T07:54:20;101488.53;;;2.72;74.95
69173;BME280;56280;49.662;8.408;2023-03-04T07:56:46;101518.66;;;2.87;75.38
69173;BME280;56280;49.662;8.408;2023-03-04T07:59:11;101484.19;;;2.71;74.93
69173;BME280;56280;49.662;8.408;2023-03-04T08:01:37;101484.03;;;2.76;75.55
69173;BME280;56280;49.662;8.408;2023-03-04T08:04:04;101523.47;;;3.01;75.31
69173;BME280;56280;49.662;8.408;2023-03-04T08:06:30;101514.22;;;2.89;75.88
69173;BME280;56280;49.662;8.408;2023-03-04T08:09:04;101526.25;;;2.97;75.19
69173;BME280;56280;49.662;8.408;2023-03-04T08:11:31;101515.91;;;2.92;75.09
69173;BME280;56280;49.662;8.408;2023-03-04T08:13:56;101524.63;;;2.92;75.36
69173;BME280;56280;49.662;8.408;2023-03-04T08:16:22;101509.06;;;2.86;75.65
69173;BME280;56280;49.662;8.408;2023-03-04T08:18:51;101514.88;;;3.23;74.24
69173;BME280;56280;49.662;8.408;2023-03-04T08:21:19;101515.47;;;3.31;75.03
69173;BME280;56280;49.662;8.408;2023-03-04T08:23:45;101518.25;;;3.26;74.56
69173;BME280;56280;49.662;8.408;2023-03-04T08:26:15;101500.53;;;3.06;75.49
69173;BME280;56280;49.662;8.408;2023-03-04T08:28:41;101500.19;;;3.17;74.71
69173;BME280;56280;49.662;8.408;2023-03-04T08:31:06;101488.13;;;3.37;74.16
69173;BME280;56280;49.662;8.408;2023-03-04T08:33:32;101519.53;;;3.65;73.85
69173;BME280;56280;49.662;8.408;2023-03-04T08:35:58;101504.28;;;3.51;73.18
69173;BME280;56280;49.662;8.408;2023-03-04T08:38:25;101515.47;;;3.56;73.88
69173;BME280;56280;49.662;8.408;2023-03-04T08:40:55;101529.09;;;3.68;73.88
69173;BME280;56280;49.662;8.408;2023-03-04T08:43:21;101493.41;;;3.60;73.38
69173;BME280;56280;49.662;8.408;2023-03-04T08:45:47;101508.50;;;3.80;73.24
69173;BME280;56280;49.662;8.408;2023-03-04T08:48:12;101507.78;;;3.99;72.86
69173;BME280;56280;49.662;8.408;2023-03-04T08:50:37;101478.41;;;3.88;72.87
69173;BME280;56280;49.662;8.408;2023-03-04T08:53:03;101501.91;;;4.16;72.37
69173;BME280;56280;49.662;8.408;2023-03-04T08:55:28;101492.63;;;4.06;72.13
69173;BME280;56280;49.662;8.408;2023-03-04T08:57:53;101521.91;;;4.20;71.89
69173;BME280;56280;49.662;8.408;2023-03-04T09:00:25;101503.28;;;4.26;70.99
69173;BME280;56280;49.662;8.408;2023-03-04T09:02:57;101497.44;;;4.42;71.05
69173;BME280;56280;49.662;8.408;2023-03-04T09:05:23;101519.00;;;4.73;70.42
69173;BME280;56280;49.662;8.408;2023-03-04T09:07:48;101507.22;;;4.38;69.61
69173;BME280;56280;49.662;8.408;2023-03-04T09:10:13;101532.69;;;4.14;70.74
69173;BME280;56280;49.662;8.408;2023-03-04T09:12:40;101525.19;;;4.49;70.71
69173;BME280;56280;49.662;8.408;2023-03-04T09:15:06;101503.72;;;4.60;69.76
69173;BME280;56280;49.662;8.408;2023-03-04T09:17:32;101529.47;;;4.96;69.27
69173;BME280;56280;49.662;8.408;2023-03-04T09:19:57;101503.22;;;4.94;68.73
69173;BME280;56280;49.662;8.408;2023-03-04T09:22:22;101509.63;;;4.20;69.85
69173;BME280;56280;49.662;8.408;2023-03-04T09:24:48;101499.78;;;3.55;73.16
69173;BME280;56280;49.662;8.408;2023-03-04T09:27:13;101510.66;;;3.93;72.86
69173;BME280;56280;49.662;8.408;2023-03-04T09:29:38;101519.31;;;3.71;74.11
69173;BME280;56280;49.662;8.408;2023-03-04T09:32:04;101500.94;;;3.95;73.48
69173;BME280;56280;49.662;8.408;2023-03-04T09:34:30;101522.06;;;4.39;72.85
69173;BME280;56280;49.662;8.408;2023-03-04T09:36:55;101507.22;;;4.60;71.46
69173;BME280;56280;49.662;8.408;2023-03-04T09:39:20;101511.81;;;4.55;71.66
69173;BME280;56280;49.662;8.408;2023-03-04T09:41:48;101523.19;;;4.55;71.29
69173;BME280;56280;49.662;8.408;2023-03-04T09:44:29;101516.59;;;4.89;70.60
69173;BME280;56280;49.662;8.408;2023-03-04T09:47:09;101515.50;;;5.16;69.91
69173;BME280;56280;49.662;8.408;2023-03-04T09:49:39;101503.34;;;4.91;69.89
69173;BME280;56280;49.662;8.408;2023-03-04T09:55:20;101511.50;;;4.63;70.95
69173;BME280;56280;49.662;8.408;2023-03-04T10:03:52;101516.38;;;5.37;68.48
69173;BME280;56280;49.662;8.408;2023-03-04T10:06:20;101496.47;;;5.29;68.30
69173;BME280;56280;49.662;8.408;2023-03-04T10:09:03;101528.28;;;5.45;68.11
69173;BME280;56280;49.662;8.408;2023-03-04T10:14:37;101511.56;;;5.46;68.01
69173;BME280;56280;49.662;8.408;2023-03-04T10:17:15;101527.88;;;5.75;67.29
69173;BME280;56280;49.662;8.408;2023-03-04T10:22:39;101509.38;;;5.97;66.00
69173;BME280;56280;49.662;8.408;2023-03-04T10:25:32;101514.06;;;6.10;66.56
69173;BME280;56280;49.662;8.408;2023-03-04T10:30:38;101511.56;;;5.67;66.94
69173;BME280;56280;49.662;8.408;2023-03-04T10:33:20;101527.50;;;5.64;67.83
69173;BME280;56280;49.662;8.408;2023-03-04T10:35:54;101513.53;;;5.62;68.45
69173;BME280;56280;49.662;8.408;2023-03-04T10:38:23;101518.66;;;5.65;67.43
69173;BME280;56280;49.662;8.408;2023-03-04T10:40:49;101510.91;;;5.62;67.64
69173;BME280;56280;49.662;8.408;2023-03-04T10:43:16;101521.06;;;5.90;66.97
69173;BME280;56280;49.662;8.408;2023-03-04T10:45:42;101513.00;;;6.14;66.30
69173;BME280;56280;49.662;8.408;2023-03-04T10:48:18;101492.03;;;6.11;65.94
69173;BME280;56280;49.662;8.408;2023-03-04T10:50:44;101477.63;;;6.18;65.88
69173;BME280;56280;49.662;8.408;2023-03-04T10:53:24;101502.28;;;5.98;66.11
69173;BME280;56280;49.662;8.408;2023-03-04T10:55:50;101488.84;;;5.83;67.21
69173;BME280;56280;49.662;8.408;2023-03-04T10:58:16;101495.53;;;6.11;66.86
69173;BME280;56280;49.662;8.408;2023-03-04T11:00:43;101496.09;;;5.99;66.95
69173;BME280;56280;49.662;8.408;2023-03-04T11:08:29;101487.59;;;6.49;64.99
69173;BME280;56280;49.662;8.408;2023-03-04T11:10:54;101489.78;;;6.59;64.81
69173;BME280;56280;49.662;8.408;2023-03-04T11:13:25;101478.72;;;6.50;64.65
69173;BME280;56280;49.662;8.408;2023-03-04T11:15:54;101485.38;;;6.59;64.97
69173;BME280;56280;49.662;8.408;2023-03-04T11:21:05;101466.38;;;6.70;63.86
69173;BME280;56280;49.662;8.408;2023-03-04T11:23:42;101465.13;;;6.94;63.15
69173;BME280;56280;49.662;8.408;2023-03-04T11:26:13;101464.19;;;7.13;62.98
69173;BME280;56280;49.662;8.408;2023-03-04T11:37:21;101438.34;;;7.02;62.09
69173;BME280;56280;49.662;8.408;2023-03-04T11:40:12;101439.66;;;7.11;61.77
69173;BME280;56280;49.662;8.408;2023-03-04T11:42:47;101436.00;;;7.14;60.98
69173;BME280;56280;49.662;8.408;2023-03-04T11:45:25;101436.31;;;7.25;60.21
69173;BME280;56280;49.662;8.408;2023-03-04T11:48:20;101445.38;;;7.19;61.23
69173;BME280;56280;49.662;8.408;2023-03-04T11:51:10;101435.72;;;7.36;60.50
69173;BME280;56280;49.662;8.408;2023-03-04T12:01:29;101439.13;;;7.55;60.24
69173;BME280;56280;49.662;8.408;2023-03-04T12:04:15;101436.75;;;7.66;60.50
69173;BME280;56280;49.662;8.408;2023-03-04T12:10:13;101436.97;;;7.46;59.16
69173;BME280;56280;49.662;8.408;2023-03-04T12:15:48;101430.91;;;7.44;60.30
69173;BME280;56280;49.662;8.408;2023-03-04T12:18:56;101421.38;;;7.57;59.76
69173;BME280;56280;49.662;8.408;2023-03-04T12:21:55;101414.53;;;7.20;58.63
69173;BME280;56280;49.662;8.408;2023-03-04T12:24:37;101409.19;;;7.04;60.36
69173;BME280;56280;49.662;8.408;2023-03-04T12:30:02;101426.88;;;6.49;61.80
69173;BME280;56280;49.662;8.408;2023-03-04T12:35:40;101401.59;;;6.80;61.62
69173;BME280;56280;49.662;8.408;2023-03-04T12:43:32;101412.19;;;5.48;65.28
69173;BME280;56280;49.662;8.408;2023-03-04T12:46:12;101397.66;;;6.35;63.02
69173;BME280;56280;49.662;8.408;2023-03-04T12:48:47;101375.63;;;6.53;61.16
69173;BME280;56280;49.662;8.408;2023-03-04T12:51:47;101402.84;;;6.73;60.10
69173;BME280;56280;49.662;8.408;2023-03-04T12:54:24;101409.50;;;5.29;64.20
69173;BME280;56280;49.662;8.408;2023-03-04T12:57:00;101409.81;;;5.23;66.72
69173;BME280;56280;49.662;8.408;2023-03-04T12:59:33;101394.44;;;5.33;65.95
69173;BME280;56280;49.662;8.408;2023-03-04T13:05:06;101406.22;;;4.63;67.99
69173;BME280;56280;49.662;8.408;2023-03-04T13:10:27;101393.06;;;5.64;65.00
69173;BME280;56280;49.662;8.408;2023-03-04T13:12:55;101389.97;;;5.15;66.18
69173;BME280;56280;49.662;8.408;2023-03-04T13:20:45;101381.75;;;5.22;66.25
69173;BME280;56280;49.662;8.408;2023-03-04T13:23:28;101374.69;;;5.02;67.47
69173;BME280;56280;49.662;8.408;2023-03-04T13:28:23;101372.59;;;6.44;62.42
69173;BME280;56280;49.662;8.408;2023-03-04T13:56:32;101343.63;;;6.42;62.66
69173;BME280;56280;49.662;8.408;2023-03-04T13:59:09;101343.16;;;6.51;61.45
69173;BME280;56280;49.662;8.408;2023-03-04T14:04:16;101337.28;;;5.91;62.98
69173;BME280;56280;49.662;8.408;2023-03-04T14:06:43;101329.75;;;6.02;62.54
69173;BME280;56280;49.662;8.408;2023-03-04T14:11:46;101319.78;;;6.26;61.78
69173;BME280;56280;49.662;8.408;2023-03-04T14:14:17;101321.97;;;6.88;61.51
69173;BME280;56280;49.662;8.408;2023-03-04T14:16:53;101326.22;;;7.24;60.36
69173;BME280;56280;49.662;8.408;2023-03-04T14:19:26;101325.59;;;6.85;60.17
69173;BME280;56280;49.662;8.408;2023-03-04T14:21:52;101312.25;;;6.71;59.46
69173;BME280;56280;49.662;8.408;2023-03-04T14:24:19;101316.84;;;6.85;60.39
69173;BME280;56280;49.662;8.408;2023-03-04T14:26:45;101310.03;;;6.97;59.42
69173;BME280;56280;49.662;8.408;2023-03-04T14:29:25;101306.03;;;6.89;59.62
69173;BME280;56280;49.662;8.408;2023-03-04T14:31:52;101310.03;;;6.97;58.55
69173;BME280;56280;49.662;8.408;2023-03-04T14:34:30;101304.88;;;7.11;59.00
69173;BME280;56280;49.662;8.408;2023-03-04T14:36:57;101294.53;;;7.40;58.64
69173;BME280;56280;49.662;8.408;2023-03-04T14:39:25;101308.25;;;7.62;58.20
69173;BME280;56280;49.662;8.408;2023-03-04T14:41:55;101289.16;;;7.57;57.57
69173;BME280;56280;49.662;8.408;2023-03-04T14:47:07;101287.19;;;7.77;57.22
69173;BME280;56280;49.662;8.408;2023-03-04T14:49:35;101292.97;;;7.99;57.35
69173;BME280;56280;49.662;8.408;2023-03-04T14:52:00;101264.78;;;7.98;56.55
69173;BME280;56280;49.662;8.408;2023-03-04T14:54:30;101284.38;;;8.26;56.14